Lake Maxine, Indiana
Current Conditions -  °F | °C
As of 7:55 PM on Saturday 22 Nov 2014 (Local Time) from K4I7 Reporting Station
Overcast Overcast  
Wind Chill: 54°   Ceiling: 4100
Heat Index: 54°   Visibility: 10mi
Dew Point: 41°   Wind: 8mph
Humidity: 62%   Direction: 200°SSW
Pressure: 30.01"   Gusts: NA
Location:  39.4355°N, 86.7884°W
Report Text: K4I7 230055Z AUTO 20007KT 10SM OVC041 12/05 A3001 RMK AO2
Loading
Personal Weather Stations






























Interactive Weather Map New forecast layout! Learn more

10-Day Weather Forecast

Advertisements
Track Severe Weather on mobile